Terminal Aerodrome Forecast
Issued by NWS Pocatello, ID

Home | Current Version | Previous Version | Text Only | Print | Product List | Glossary On
Versions: 1 2 3 4 5 6 7 8 9 10 11 12 13 14 15 16 17 18 19 20 21 22 23 24 25 26
000
FTUS45 KPIH 301120
TAFPIH
TAF
KPIH 301120Z 3012/3112 VRB05KT P6SM FEW150
     FM301600 18012KT P6SM SCT120
     FM301800 20015G25KT P6SM SCT120
     FM310000 18015G25KT P6SM VCTS SCT100CB
     FM310400 20013G20KT P6SM SCT200=

USA.gov is the U.S. government's official web portal to all federal, state and local government web resources and services.